sensor_id;sensor_type;location;lat;lon;timestamp;P1;durP1;ratioP1;P2;durP2;ratioP2
40745;SDS011;26454;51.164;4.488;2023-08-21T00:01:17;4.82;;;2.17;;
40745;SDS011;26454;51.164;4.488;2023-08-21T00:03:43;7.75;;;2.33;;
40745;SDS011;26454;51.164;4.488;2023-08-21T00:06:09;4.78;;;2.22;;
40745;SDS011;26454;51.164;4.488;2023-08-21T00:08:35;6.68;;;1.95;;
40745;SDS011;26454;51.164;4.488;2023-08-21T00:11:01;9.95;;;2.28;;
40745;SDS011;26454;51.164;4.488;2023-08-21T00:13:27;8.43;;;2.55;;
40745;SDS011;26454;51.164;4.488;2023-08-21T00:15:53;5.45;;;2.17;;
40745;SDS011;26454;51.164;4.488;2023-08-21T00:18:20;8.05;;;2.63;;
40745;SDS011;26454;51.164;4.488;2023-08-21T00:20:46;8.48;;;2.35;;
40745;SDS011;26454;51.164;4.488;2023-08-21T00:23:12;12.95;;;3.38;;
40745;SDS011;26454;51.164;4.488;2023-08-21T00:25:38;7.10;;;2.70;;
40745;SDS011;26454;51.164;4.488;2023-08-21T00:28:04;5.25;;;2.75;;
40745;SDS011;26454;51.164;4.488;2023-08-21T00:30:30;10.32;;;3.53;;
40745;SDS011;26454;51.164;4.488;2023-08-21T00:32:56;9.57;;;2.63;;
40745;SDS011;26454;51.164;4.488;2023-08-21T00:35:22;5.07;;;2.65;;
40745;SDS011;26454;51.164;4.488;2023-08-21T00:37:48;5.03;;;2.30;;
40745;SDS011;26454;51.164;4.488;2023-08-21T00:40:15;9.40;;;2.75;;
40745;SDS011;26454;51.164;4.488;2023-08-21T00:42:41;7.60;;;2.90;;
40745;SDS011;26454;51.164;4.488;2023-08-21T00:45:07;9.05;;;3.65;;
40745;SDS011;26454;51.164;4.488;2023-08-21T00:47:34;6.90;;;2.70;;
40745;SDS011;26454;51.164;4.488;2023-08-21T00:50:00;6.93;;;2.80;;
40745;SDS011;26454;51.164;4.488;2023-08-21T00:52:26;10.75;;;2.85;;
40745;SDS011;26454;51.164;4.488;2023-08-21T00:54:53;10.23;;;3.00;;
40745;SDS011;26454;51.164;4.488;2023-08-21T00:57:20;5.93;;;3.05;;
40745;SDS011;26454;51.164;4.488;2023-08-21T00:59:46;5.60;;;2.65;;
40745;SDS011;26454;51.164;4.488;2023-08-21T01:02:12;7.80;;;2.63;;
40745;SDS011;26454;51.164;4.488;2023-08-21T01:04:38;5.07;;;2.30;;
40745;SDS011;26454;51.164;4.488;2023-08-21T01:07:04;5.82;;;2.33;;
40745;SDS011;26454;51.164;4.488;2023-08-21T01:12:19;4.97;;;2.10;;
40745;SDS011;26454;51.164;4.488;2023-08-21T01:17:24;6.65;;;2.75;;
40745;SDS011;26454;51.164;4.488;2023-08-21T01:19:51;5.57;;;2.63;;
40745;SDS011;26454;51.164;4.488;2023-08-21T01:22:17;4.35;;;2.33;;
40745;SDS011;26454;51.164;4.488;2023-08-21T01:24:43;5.22;;;2.05;;
40745;SDS011;26454;51.164;4.488;2023-08-21T01:27:10;7.32;;;2.95;;
40745;SDS011;26454;51.164;4.488;2023-08-21T01:29:36;9.38;;;3.40;;
40745;SDS011;26454;51.164;4.488;2023-08-21T01:32:11;5.10;;;2.35;;
40745;SDS011;26454;51.164;4.488;2023-08-21T01:34:40;6.70;;;2.70;;
40745;SDS011;26454;51.164;4.488;2023-08-21T01:37:06;8.75;;;2.55;;
40745;SDS011;26454;51.164;4.488;2023-08-21T01:39:32;4.55;;;2.13;;
40745;SDS011;26454;51.164;4.488;2023-08-21T01:41:58;9.10;;;3.28;;
40745;SDS011;26454;51.164;4.488;2023-08-21T01:44:25;8.30;;;2.53;;
40745;SDS011;26454;51.164;4.488;2023-08-21T01:46:52;4.93;;;2.47;;
40745;SDS011;26454;51.164;4.488;2023-08-21T01:49:18;6.63;;;2.55;;
40745;SDS011;26454;51.164;4.488;2023-08-21T01:51:44;5.85;;;2.33;;
40745;SDS011;26454;51.164;4.488;2023-08-21T01:54:10;7.40;;;2.22;;
40745;SDS011;26454;51.164;4.488;2023-08-21T01:56:36;6.82;;;2.75;;
40745;SDS011;26454;51.164;4.488;2023-08-21T01:59:04;5.43;;;2.83;;
40745;SDS011;26454;51.164;4.488;2023-08-21T02:01:31;4.13;;;1.88;;
40745;SDS011;26454;51.164;4.488;2023-08-21T02:03:57;7.68;;;2.85;;
40745;SDS011;26454;51.164;4.488;2023-08-21T02:06:23;8.35;;;2.22;;
40745;SDS011;26454;51.164;4.488;2023-08-21T02:08:49;8.30;;;2.75;;
40745;SDS011;26454;51.164;4.488;2023-08-21T02:11:15;10.70;;;3.17;;
40745;SDS011;26454;51.164;4.488;2023-08-21T02:13:41;8.77;;;3.13;;
40745;SDS011;26454;51.164;4.488;2023-08-21T02:16:07;4.65;;;2.30;;
40745;SDS011;26454;51.164;4.488;2023-08-21T02:18:33;5.68;;;2.50;;
40745;SDS011;26454;51.164;4.488;2023-08-21T02:21:00;8.60;;;2.67;;
40745;SDS011;26454;51.164;4.488;2023-08-21T02:23:27;7.32;;;2.30;;
40745;SDS011;26454;51.164;4.488;2023-08-21T02:25:54;6.68;;;2.78;;
40745;SDS011;26454;51.164;4.488;2023-08-21T02:28:20;8.25;;;2.42;;
40745;SDS011;26454;51.164;4.488;2023-08-21T02:30:46;8.00;;;3.17;;
40745;SDS011;26454;51.164;4.488;2023-08-21T02:33:12;4.97;;;2.53;;
40745;SDS011;26454;51.164;4.488;2023-08-21T02:35:38;7.18;;;2.60;;
40745;SDS011;26454;51.164;4.488;2023-08-21T02:38:04;7.57;;;2.50;;
40745;SDS011;26454;51.164;4.488;2023-08-21T02:40:30;7.88;;;3.00;;
40745;SDS011;26454;51.164;4.488;2023-08-21T02:42:57;5.45;;;2.50;;
40745;SDS011;26454;51.164;4.488;2023-08-21T02:45:23;4.75;;;2.15;;
40745;SDS011;26454;51.164;4.488;2023-08-21T02:47:49;7.15;;;2.38;;
40745;SDS011;26454;51.164;4.488;2023-08-21T02:50:15;6.93;;;2.45;;
40745;SDS011;26454;51.164;4.488;2023-08-21T02:52:41;5.13;;;2.28;;
40745;SDS011;26454;51.164;4.488;2023-08-21T02:55:07;4.85;;;2.10;;
40745;SDS011;26454;51.164;4.488;2023-08-21T02:57:33;7.70;;;2.80;;
40745;SDS011;26454;51.164;4.488;2023-08-21T02:59:59;4.72;;;2.47;;
40745;SDS011;26454;51.164;4.488;2023-08-21T03:02:25;4.18;;;1.90;;
40745;SDS011;26454;51.164;4.488;2023-08-21T03:04:52;8.95;;;2.83;;
40745;SDS011;26454;51.164;4.488;2023-08-21T03:07:18;6.13;;;2.60;;
40745;SDS011;26454;51.164;4.488;2023-08-21T03:09:45;6.85;;;2.60;;
40745;SDS011;26454;51.164;4.488;2023-08-21T03:12:12;6.75;;;3.15;;
40745;SDS011;26454;51.164;4.488;2023-08-21T03:14:38;5.88;;;2.63;;
40745;SDS011;26454;51.164;4.488;2023-08-21T03:17:04;4.03;;;2.25;;
40745;SDS011;26454;51.164;4.488;2023-08-21T03:19:30;7.85;;;2.85;;
40745;SDS011;26454;51.164;4.488;2023-08-21T03:21:56;4.65;;;2.70;;
40745;SDS011;26454;51.164;4.488;2023-08-21T03:24:22;5.20;;;2.25;;
40745;SDS011;26454;51.164;4.488;2023-08-21T03:26:48;7.30;;;2.78;;
40745;SDS011;26454;51.164;4.488;2023-08-21T03:29:14;8.95;;;3.20;;
40745;SDS011;26454;51.164;4.488;2023-08-21T03:31:41;5.88;;;2.60;;
40745;SDS011;26454;51.164;4.488;2023-08-21T03:34:07;5.53;;;2.25;;
40745;SDS011;26454;51.164;4.488;2023-08-21T03:36:33;9.60;;;2.85;;
40745;SDS011;26454;51.164;4.488;2023-08-21T03:39:02;6.50;;;2.63;;
40745;SDS011;26454;51.164;4.488;2023-08-21T03:41:30;8.98;;;2.75;;
40745;SDS011;26454;51.164;4.488;2023-08-21T03:43:57;7.43;;;3.22;;
40745;SDS011;26454;51.164;4.488;2023-08-21T03:46:23;7.60;;;3.10;;
40745;SDS011;26454;51.164;4.488;2023-08-21T03:48:49;7.50;;;2.80;;
40745;SDS011;26454;51.164;4.488;2023-08-21T03:51:16;9.68;;;3.88;;
40745;SDS011;26454;51.164;4.488;2023-08-21T03:53:42;10.05;;;3.53;;
40745;SDS011;26454;51.164;4.488;2023-08-21T03:56:08;6.13;;;2.72;;
40745;SDS011;26454;51.164;4.488;2023-08-21T03:58:34;6.35;;;3.20;;
40745;SDS011;26454;51.164;4.488;2023-08-21T04:01:00;6.63;;;3.40;;
40745;SDS011;26454;51.164;4.488;2023-08-21T04:03:26;6.93;;;2.70;;
40745;SDS011;26454;51.164;4.488;2023-08-21T04:05:53;5.05;;;2.92;;
40745;SDS011;26454;51.164;4.488;2023-08-21T04:08:21;8.20;;;2.95;;
40745;SDS011;26454;51.164;4.488;2023-08-21T04:10:47;7.10;;;2.75;;
40745;SDS011;26454;51.164;4.488;2023-08-21T04:13:13;6.90;;;3.38;;
40745;SDS011;26454;51.164;4.488;2023-08-21T04:15:44;7.28;;;3.20;;
40745;SDS011;26454;51.164;4.488;2023-08-21T04:18:10;7.18;;;2.67;;
40745;SDS011;26454;51.164;4.488;2023-08-21T04:20:36;7.22;;;2.72;;
40745;SDS011;26454;51.164;4.488;2023-08-21T04:23:02;3.67;;;2.65;;
40745;SDS011;26454;51.164;4.488;2023-08-21T04:25:29;6.25;;;2.45;;
40745;SDS011;26454;51.164;4.488;2023-08-21T04:27:55;5.03;;;2.38;;
40745;SDS011;26454;51.164;4.488;2023-08-21T04:30:21;7.20;;;3.15;;
40745;SDS011;26454;51.164;4.488;2023-08-21T04:32:47;8.40;;;2.92;;
40745;SDS011;26454;51.164;4.488;2023-08-21T04:35:13;8.02;;;3.22;;
40745;SDS011;26454;51.164;4.488;2023-08-21T04:37:42;6.93;;;3.22;;
40745;SDS011;26454;51.164;4.488;2023-08-21T04:40:09;10.60;;;3.35;;
40745;SDS011;26454;51.164;4.488;2023-08-21T04:42:36;6.80;;;3.10;;
40745;SDS011;26454;51.164;4.488;2023-08-21T04:45:02;6.13;;;2.70;;
40745;SDS011;26454;51.164;4.488;2023-08-21T04:47:29;3.95;;;2.80;;
40745;SDS011;26454;51.164;4.488;2023-08-21T04:49:55;7.05;;;2.95;;
40745;SDS011;26454;51.164;4.488;2023-08-21T04:52:22;4.10;;;3.22;;
40745;SDS011;26454;51.164;4.488;2023-08-21T04:54:48;6.97;;;3.00;;
40745;SDS011;26454;51.164;4.488;2023-08-21T04:57:14;5.25;;;2.70;;
40745;SDS011;26454;51.164;4.488;2023-08-21T04:59:41;4.40;;;2.47;;
40745;SDS011;26454;51.164;4.488;2023-08-21T05:02:07;6.07;;;2.60;;
40745;SDS011;26454;51.164;4.488;2023-08-21T05:04:33;9.90;;;3.53;;
40745;SDS011;26454;51.164;4.488;2023-08-21T05:07:00;5.32;;;3.28;;
40745;SDS011;26454;51.164;4.488;2023-08-21T05:09:26;5.63;;;3.08;;
40745;SDS011;26454;51.164;4.488;2023-08-21T05:11:52;8.75;;;3.08;;
40745;SDS011;26454;51.164;4.488;2023-08-21T05:14:18;5.75;;;3.10;;
40745;SDS011;26454;51.164;4.488;2023-08-21T05:16:45;8.02;;;3.63;;
40745;SDS011;26454;51.164;4.488;2023-08-21T05:19:11;5.82;;;3.08;;
40745;SDS011;26454;51.164;4.488;2023-08-21T05:21:37;7.10;;;3.42;;
40745;SDS011;26454;51.164;4.488;2023-08-21T05:24:04;5.40;;;3.33;;
40745;SDS011;26454;51.164;4.488;2023-08-21T05:26:30;10.23;;;3.55;;
40745;SDS011;26454;51.164;4.488;2023-08-21T05:28:56;7.32;;;3.30;;
40745;SDS011;26454;51.164;4.488;2023-08-21T05:31:22;3.70;;;2.58;;
40745;SDS011;26454;51.164;4.488;2023-08-21T05:33:48;7.30;;;3.08;;
40745;SDS011;26454;51.164;4.488;2023-08-21T05:36:14;7.60;;;3.00;;
40745;SDS011;26454;51.164;4.488;2023-08-21T05:38:40;7.35;;;3.20;;
40745;SDS011;26454;51.164;4.488;2023-08-21T05:41:06;7.53;;;3.35;;
40745;SDS011;26454;51.164;4.488;2023-08-21T05:43:33;8.02;;;3.47;;
40745;SDS011;26454;51.164;4.488;2023-08-21T05:45:59;7.05;;;3.40;;
40745;SDS011;26454;51.164;4.488;2023-08-21T05:48:25;9.15;;;3.40;;
40745;SDS011;26454;51.164;4.488;2023-08-21T05:50:52;10.50;;;3.60;;
40745;SDS011;26454;51.164;4.488;2023-08-21T05:53:18;7.28;;;3.45;;
40745;SDS011;26454;51.164;4.488;2023-08-21T05:55:44;8.27;;;3.20;;
40745;SDS011;26454;51.164;4.488;2023-08-21T05:58:10;8.40;;;2.97;;
40745;SDS011;26454;51.164;4.488;2023-08-21T06:00:37;9.40;;;2.75;;
40745;SDS011;26454;51.164;4.488;2023-08-21T06:03:04;14.20;;;3.58;;
40745;SDS011;26454;51.164;4.488;2023-08-21T06:05:30;9.43;;;3.35;;
40745;SDS011;26454;51.164;4.488;2023-08-21T06:07:56;5.95;;;2.95;;
40745;SDS011;26454;51.164;4.488;2023-08-21T06:10:22;8.05;;;3.17;;
40745;SDS011;26454;51.164;4.488;2023-08-21T06:12:48;6.63;;;2.97;;
40745;SDS011;26454;51.164;4.488;2023-08-21T06:15:16;8.27;;;3.42;;
40745;SDS011;26454;51.164;4.488;2023-08-21T06:17:42;11.32;;;3.05;;
40745;SDS011;26454;51.164;4.488;2023-08-21T06:20:08;11.15;;;3.28;;
40745;SDS011;26454;51.164;4.488;2023-08-21T06:22:34;11.55;;;3.10;;
40745;SDS011;26454;51.164;4.488;2023-08-21T06:25:01;7.65;;;3.00;;
40745;SDS011;26454;51.164;4.488;2023-08-21T06:27:27;8.60;;;3.35;;
40745;SDS011;26454;51.164;4.488;2023-08-21T06:29:53;10.15;;;3.03;;
40745;SDS011;26454;51.164;4.488;2023-08-21T06:32:19;10.43;;;3.22;;
40745;SDS011;26454;51.164;4.488;2023-08-21T06:34:45;12.98;;;3.75;;
40745;SDS011;26454;51.164;4.488;2023-08-21T06:37:11;17.83;;;4.57;;
40745;SDS011;26454;51.164;4.488;2023-08-21T06:39:37;13.60;;;4.18;;
40745;SDS011;26454;51.164;4.488;2023-08-21T06:42:04;12.07;;;3.60;;
40745;SDS011;26454;51.164;4.488;2023-08-21T06:44:30;12.73;;;4.22;;
40745;SDS011;26454;51.164;4.488;2023-08-21T06:46:56;11.02;;;4.68;;
40745;SDS011;26454;51.164;4.488;2023-08-21T06:49:22;19.30;;;5.03;;
40745;SDS011;26454;51.164;4.488;2023-08-21T06:51:48;10.50;;;4.50;;
40745;SDS011;26454;51.164;4.488;2023-08-21T06:54:15;13.07;;;4.82;;
40745;SDS011;26454;51.164;4.488;2023-08-21T06:56:42;14.50;;;4.35;;
40745;SDS011;26454;51.164;4.488;2023-08-21T06:59:09;14.15;;;4.05;;
40745;SDS011;26454;51.164;4.488;2023-08-21T07:01:35;13.10;;;4.50;;
40745;SDS011;26454;51.164;4.488;2023-08-21T07:04:01;8.45;;;4.47;;
40745;SDS011;26454;51.164;4.488;2023-08-21T07:06:27;17.92;;;4.63;;
40745;SDS011;26454;51.164;4.488;2023-08-21T07:08:54;12.90;;;4.18;;
40745;SDS011;26454;51.164;4.488;2023-08-21T07:11:20;13.02;;;4.00;;
40745;SDS011;26454;51.164;4.488;2023-08-21T07:13:46;13.85;;;4.90;;
40745;SDS011;26454;51.164;4.488;2023-08-21T07:16:12;11.00;;;4.03;;
40745;SDS011;26454;51.164;4.488;2023-08-21T07:18:38;13.35;;;3.85;;
40745;SDS011;26454;51.164;4.488;2023-08-21T07:21:04;9.15;;;3.58;;
40745;SDS011;26454;51.164;4.488;2023-08-21T07:23:31;13.15;;;4.03;;
40745;SDS011;26454;51.164;4.488;2023-08-21T07:25:58;9.00;;;3.42;;
40745;SDS011;26454;51.164;4.488;2023-08-21T07:28:24;6.43;;;3.20;;
40745;SDS011;26454;51.164;4.488;2023-08-21T07:30:58;11.80;;;4.07;;
40745;SDS011;26454;51.164;4.488;2023-08-21T07:33:24;14.63;;;3.72;;
40745;SDS011;26454;51.164;4.488;2023-08-21T07:35:59;8.88;;;3.13;;
40745;SDS011;26454;51.164;4.488;2023-08-21T07:38:25;14.30;;;3.33;;
40745;SDS011;26454;51.164;4.488;2023-08-21T07:41:01;9.98;;;3.17;;
40745;SDS011;26454;51.164;4.488;2023-08-21T07:43:27;15.07;;;3.97;;
40745;SDS011;26454;51.164;4.488;2023-08-21T07:45:53;11.15;;;3.17;;
40745;SDS011;26454;51.164;4.488;2023-08-21T07:48:19;9.50;;;3.75;;
40745;SDS011;26454;51.164;4.488;2023-08-21T07:50:52;14.00;;;3.17;;
40745;SDS011;26454;51.164;4.488;2023-08-21T07:53:18;9.57;;;2.88;;
40745;SDS011;26454;51.164;4.488;2023-08-21T07:55:46;8.85;;;2.58;;
40745;SDS011;26454;51.164;4.488;2023-08-21T07:58:12;8.25;;;2.58;;
40745;SDS011;26454;51.164;4.488;2023-08-21T08:00:38;15.23;;;4.05;;
40745;SDS011;26454;51.164;4.488;2023-08-21T08:03:04;13.02;;;3.38;;
40745;SDS011;26454;51.164;4.488;2023-08-21T08:05:31;10.13;;;2.30;;
40745;SDS011;26454;51.164;4.488;2023-08-21T08:07:58;11.30;;;2.40;;
40745;SDS011;26454;51.164;4.488;2023-08-21T08:10:24;8.82;;;3.00;;
40745;SDS011;26454;51.164;4.488;2023-08-21T08:12:50;17.63;;;2.90;;
40745;SDS011;26454;51.164;4.488;2023-08-21T08:15:17;8.70;;;2.95;;
40745;SDS011;26454;51.164;4.488;2023-08-21T08:17:43;12.27;;;3.63;;
40745;SDS011;26454;51.164;4.488;2023-08-21T08:20:11;8.80;;;3.35;;
40745;SDS011;26454;51.164;4.488;2023-08-21T08:22:37;13.90;;;3.33;;
40745;SDS011;26454;51.164;4.488;2023-08-21T08:25:04;9.13;;;3.35;;
40745;SDS011;26454;51.164;4.488;2023-08-21T08:27:31;12.70;;;3.83;;
40745;SDS011;26454;51.164;4.488;2023-08-21T08:29:57;15.48;;;4.47;;
40745;SDS011;26454;51.164;4.488;2023-08-21T08:32:24;12.73;;;4.03;;
40745;SDS011;26454;51.164;4.488;2023-08-21T08:34:50;15.20;;;4.53;;
40745;SDS011;26454;51.164;4.488;2023-08-21T08:37:18;7.20;;;3.75;;
40745;SDS011;26454;51.164;4.488;2023-08-21T08:39:45;16.10;;;5.72;;
40745;SDS011;26454;51.164;4.488;2023-08-21T08:42:11;13.05;;;4.25;;
40745;SDS011;26454;51.164;4.488;2023-08-21T08:44:38;12.95;;;4.13;;
40745;SDS011;26454;51.164;4.488;2023-08-21T08:47:06;11.57;;;4.82;;
40745;SDS011;26454;51.164;4.488;2023-08-21T08:49:32;10.55;;;3.63;;
40745;SDS011;26454;51.164;4.488;2023-08-21T08:51:58;7.35;;;2.30;;
40745;SDS011;26454;51.164;4.488;2023-08-21T08:54:25;11.75;;;3.88;;
40745;SDS011;26454;51.164;4.488;2023-08-21T08:56:52;18.95;;;4.63;;
40745;SDS011;26454;51.164;4.488;2023-08-21T08:59:19;9.70;;;3.65;;
40745;SDS011;26454;51.164;4.488;2023-08-21T09:01:45;9.75;;;2.63;;
40745;SDS011;26454;51.164;4.488;2023-08-21T09:04:13;15.98;;;4.22;;
40745;SDS011;26454;51.164;4.488;2023-08-21T09:06:39;9.50;;;2.13;;
40745;SDS011;26454;51.164;4.488;2023-08-21T09:09:06;6.93;;;1.75;;
40745;SDS011;26454;51.164;4.488;2023-08-21T09:11:33;4.05;;;1.52;;
40745;SDS011;26454;51.164;4.488;2023-08-21T09:13:59;6.47;;;2.20;;
40745;SDS011;26454;51.164;4.488;2023-08-21T09:16:25;8.30;;;2.58;;
40745;SDS011;26454;51.164;4.488;2023-08-21T09:18:53;7.43;;;3.17;;
40745;SDS011;26454;51.164;4.488;2023-08-21T09:21:19;8.80;;;2.83;;
40745;SDS011;26454;51.164;4.488;2023-08-21T09:23:46;7.20;;;2.47;;
40745;SDS011;26454;51.164;4.488;2023-08-21T09:26:20;6.13;;;2.00;;
40745;SDS011;26454;51.164;4.488;2023-08-21T09:28:48;7.63;;;2.42;;
40745;SDS011;26454;51.164;4.488;2023-08-21T09:31:14;6.35;;;2.22;;
40745;SDS011;26454;51.164;4.488;2023-08-21T09:33:41;4.75;;;1.65;;
40745;SDS011;26454;51.164;4.488;2023-08-21T09:36:09;7.63;;;2.25;;
40745;SDS011;26454;51.164;4.488;2023-08-21T09:38:38;6.93;;;2.80;;
40745;SDS011;26454;51.164;4.488;2023-08-21T09:41:05;6.45;;;2.13;;
40745;SDS011;26454;51.164;4.488;2023-08-21T09:43:32;8.40;;;2.30;;
40745;SDS011;26454;51.164;4.488;2023-08-21T09:46:06;7.22;;;2.20;;
40745;SDS011;26454;51.164;4.488;2023-08-21T09:48:32;3.85;;;1.52;;
40745;SDS011;26454;51.164;4.488;2023-08-21T09:50:58;3.90;;;1.92;;
40745;SDS011;26454;51.164;4.488;2023-08-21T09:53:29;5.53;;;2.03;;
40745;SDS011;26454;51.164;4.488;2023-08-21T09:55:55;3.10;;;1.13;;
40745;SDS011;26454;51.164;4.488;2023-08-21T09:58:21;5.78;;;1.80;;
40745;SDS011;26454;51.164;4.488;2023-08-21T10:00:48;5.35;;;1.52;;
40745;SDS011;26454;51.164;4.488;2023-08-21T10:03:17;6.28;;;2.00;;
40745;SDS011;26454;51.164;4.488;2023-08-21T10:05:44;2.08;;;0.60;;
40745;SDS011;26454;51.164;4.488;2023-08-21T10:08:14;1.92;;;0.60;;
40745;SDS011;26454;51.164;4.488;2023-08-21T10:10:41;2.40;;;0.65;;
40745;SDS011;26454;51.164;4.488;2023-08-21T10:13:08;2.22;;;0.60;;
40745;SDS011;26454;51.164;4.488;2023-08-21T10:15:35;2.25;;;0.70;;
40745;SDS011;26454;51.164;4.488;2023-08-21T10:20:38;4.57;;;1.30;;
40745;SDS011;26454;51.164;4.488;2023-08-21T10:23:04;1.92;;;0.90;;
40745;SDS011;26454;51.164;4.488;2023-08-21T10:25:30;3.70;;;1.30;;
40745;SDS011;26454;51.164;4.488;2023-08-21T10:27:56;3.35;;;1.10;;
40745;SDS011;26454;51.164;4.488;2023-08-21T10:30:23;3.53;;;0.90;;
40745;SDS011;26454;51.164;4.488;2023-08-21T10:32:51;6.55;;;1.92;;
40745;SDS011;26454;51.164;4.488;2023-08-21T10:35:18;9.13;;;2.15;;
40745;SDS011;26454;51.164;4.488;2023-08-21T10:40:23;4.30;;;1.35;;
40745;SDS011;26454;51.164;4.488;2023-08-21T10:42:49;5.05;;;1.60;;
40745;SDS011;26454;51.164;4.488;2023-08-21T10:45:15;4.60;;;1.75;;
40745;SDS011;26454;51.164;4.488;2023-08-21T10:47:41;4.85;;;1.60;;
40745;SDS011;26454;51.164;4.488;2023-08-21T10:50:07;4.18;;;1.67;;
40745;SDS011;26454;51.164;4.488;2023-08-21T10:52:42;3.90;;;1.25;;
40745;SDS011;26454;51.164;4.488;2023-08-21T10:55:11;3.70;;;0.90;;
40745;SDS011;26454;51.164;4.488;2023-08-21T10:57:37;2.95;;;1.63;;
40745;SDS011;26454;51.164;4.488;2023-08-21T11:00:04;3.47;;;1.17;;
40745;SDS011;26454;51.164;4.488;2023-08-21T11:02:34;3.92;;;0.98;;
40745;SDS011;26454;51.164;4.488;2023-08-21T11:05:00;3.50;;;1.20;;
40745;SDS011;26454;51.164;4.488;2023-08-21T11:07:28;7.55;;;1.63;;
40745;SDS011;26454;51.164;4.488;2023-08-21T11:09:54;7.65;;;1.38;;
40745;SDS011;26454;51.164;4.488;2023-08-21T11:12:21;4.80;;;1.20;;
40745;SDS011;26454;51.164;4.488;2023-08-21T11:14:48;3.05;;;0.80;;
40745;SDS011;26454;51.164;4.488;2023-08-21T11:17:15;1.02;;;0.47;;
40745;SDS011;26454;51.164;4.488;2023-08-21T11:19:41;2.83;;;1.00;;
40745;SDS011;26454;51.164;4.488;2023-08-21T11:22:08;4.05;;;0.88;;
40745;SDS011;26454;51.164;4.488;2023-08-21T11:24:39;3.97;;;1.30;;
40745;SDS011;26454;51.164;4.488;2023-08-21T11:27:07;3.60;;;1.17;;
40745;SDS011;26454;51.164;4.488;2023-08-21T11:29:36;4.03;;;0.93;;
40745;SDS011;26454;51.164;4.488;2023-08-21T11:32:05;4.47;;;1.03;;
40745;SDS011;26454;51.164;4.488;2023-08-21T11:34:33;2.63;;;0.80;;
40745;SDS011;26454;51.164;4.488;2023-08-21T11:36:59;3.08;;;0.95;;
40745;SDS011;26454;51.164;4.488;2023-08-21T11:39:25;3.13;;;1.15;;
40745;SDS011;26454;51.164;4.488;2023-08-21T11:41:55;2.40;;;0.82;;
40745;SDS011;26454;51.164;4.488;2023-08-21T11:44:22;1.42;;;0.75;;
40745;SDS011;26454;51.164;4.488;2023-08-21T11:46:50;3.97;;;1.00;;
40745;SDS011;26454;51.164;4.488;2023-08-21T11:51:44;8.45;;;0.98;;
40745;SDS011;26454;51.164;4.488;2023-08-21T11:54:10;2.45;;;0.70;;
40745;SDS011;26454;51.164;4.488;2023-08-21T11:56:38;3.90;;;0.77;;
40745;SDS011;26454;51.164;4.488;2023-08-21T11:59:04;2.35;;;0.73;;
40745;SDS011;26454;51.164;4.488;2023-08-21T12:01:33;3.63;;;1.55;;
40745;SDS011;26454;51.164;4.488;2023-08-21T12:03:59;1.73;;;0.70;;
40745;SDS011;26454;51.164;4.488;2023-08-21T12:06:25;2.92;;;0.95;;
40745;SDS011;26454;51.164;4.488;2023-08-21T12:08:57;3.67;;;0.80;;
40745;SDS011;26454;51.164;4.488;2023-08-21T12:11:23;1.02;;;0.55;;
40745;SDS011;26454;51.164;4.488;2023-08-21T12:13:50;1.80;;;0.90;;
40745;SDS011;26454;51.164;4.488;2023-08-21T12:16:17;4.30;;;1.15;;
40745;SDS011;26454;51.164;4.488;2023-08-21T12:18:43;2.15;;;0.57;;
40745;SDS011;26454;51.164;4.488;2023-08-21T12:21:08;2.33;;;0.60;;
40745;SDS011;26454;51.164;4.488;2023-08-21T12:23:34;5.43;;;0.80;;
40745;SDS011;26454;51.164;4.488;2023-08-21T12:26:01;3.47;;;0.85;;
40745;SDS011;26454;51.164;4.488;2023-08-21T12:28:27;5.28;;;0.77;;
40745;SDS011;26454;51.164;4.488;2023-08-21T12:30:53;5.30;;;1.05;;
40745;SDS011;26454;51.164;4.488;2023-08-21T12:33:19;2.50;;;0.90;;
40745;SDS011;26454;51.164;4.488;2023-08-21T12:35:45;2.97;;;0.98;;
40745;SDS011;26454;51.164;4.488;2023-08-21T12:38:11;1.98;;;0.73;;
40745;SDS011;26454;51.164;4.488;2023-08-21T12:40:38;3.38;;;0.85;;
40745;SDS011;26454;51.164;4.488;2023-08-21T12:43:04;2.97;;;0.82;;
40745;SDS011;26454;51.164;4.488;2023-08-21T12:45:30;4.90;;;0.57;;
40745;SDS011;26454;51.164;4.488;2023-08-21T12:47:57;1.90;;;0.60;;
40745;SDS011;26454;51.164;4.488;2023-08-21T12:50:23;3.15;;;0.63;;
40745;SDS011;26454;51.164;4.488;2023-08-21T12:52:49;4.90;;;0.65;;
40745;SDS011;26454;51.164;4.488;2023-08-21T12:55:15;3.65;;;1.02;;
40745;SDS011;26454;51.164;4.488;2023-08-21T12:57:41;2.55;;;1.05;;
40745;SDS011;26454;51.164;4.488;2023-08-21T13:00:07;3.13;;;0.70;;
40745;SDS011;26454;51.164;4.488;2023-08-21T13:02:35;2.55;;;0.98;;
40745;SDS011;26454;51.164;4.488;2023-08-21T13:05:01;2.20;;;0.70;;
40745;SDS011;26454;51.164;4.488;2023-08-21T13:07:28;2.17;;;0.75;;
40745;SDS011;26454;51.164;4.488;2023-08-21T13:09:54;2.00;;;1.00;;
40745;SDS011;26454;51.164;4.488;2023-08-21T13:12:20;3.05;;;0.80;;
40745;SDS011;26454;51.164;4.488;2023-08-21T13:14:46;4.40;;;0.90;;
40745;SDS011;26454;51.164;4.488;2023-08-21T13:17:15;3.17;;;0.50;;
40745;SDS011;26454;51.164;4.488;2023-08-21T13:19:41;4.47;;;0.90;;
40745;SDS011;26454;51.164;4.488;2023-08-21T13:22:07;3.92;;;1.27;;
40745;SDS011;26454;51.164;4.488;2023-08-21T13:24:34;5.45;;;1.10;;
40745;SDS011;26454;51.164;4.488;2023-08-21T13:27:00;3.05;;;0.88;;
40745;SDS011;26454;51.164;4.488;2023-08-21T13:29:26;5.03;;;1.20;;
40745;SDS011;26454;51.164;4.488;2023-08-21T13:31:52;1.58;;;0.65;;
40745;SDS011;26454;51.164;4.488;2023-08-21T13:34:18;3.13;;;1.08;;
40745;SDS011;26454;51.164;4.488;2023-08-21T13:36:44;4.68;;;1.00;;
40745;SDS011;26454;51.164;4.488;2023-08-21T13:39:10;4.85;;;1.00;;
40745;SDS011;26454;51.164;4.488;2023-08-21T13:41:38;4.28;;;1.50;;
40745;SDS011;26454;51.164;4.488;2023-08-21T13:44:04;1.90;;;0.80;;
40745;SDS011;26454;51.164;4.488;2023-08-21T13:46:30;2.72;;;1.02;;
40745;SDS011;26454;51.164;4.488;2023-08-21T13:48:56;4.60;;;1.33;;
40745;SDS011;26454;51.164;4.488;2023-08-21T13:51:22;2.90;;;1.45;;
40745;SDS011;26454;51.164;4.488;2023-08-21T13:53:52;5.05;;;1.08;;
40745;SDS011;26454;51.164;4.488;2023-08-21T13:56:18;5.07;;;1.00;;
40745;SDS011;26454;51.164;4.488;2023-08-21T13:58:44;3.28;;;1.00;;
40745;SDS011;26454;51.164;4.488;2023-08-21T14:01:10;4.43;;;1.15;;
40745;SDS011;26454;51.164;4.488;2023-08-21T14:03:36;2.70;;;1.02;;
40745;SDS011;26454;51.164;4.488;2023-08-21T14:06:02;2.17;;;0.90;;
40745;SDS011;26454;51.164;4.488;2023-08-21T14:08:29;2.45;;;1.13;;
40745;SDS011;26454;51.164;4.488;2023-08-21T14:10:56;3.40;;;1.63;;
40745;SDS011;26454;51.164;4.488;2023-08-21T14:13:22;3.58;;;1.33;;
40745;SDS011;26454;51.164;4.488;2023-08-21T14:15:48;3.42;;;1.02;;
40745;SDS011;26454;51.164;4.488;2023-08-21T14:18:14;5.95;;;1.42;;
40745;SDS011;26454;51.164;4.488;2023-08-21T14:20:40;3.53;;;0.90;;
40745;SDS011;26454;51.164;4.488;2023-08-21T14:23:06;2.47;;;0.82;;
40745;SDS011;26454;51.164;4.488;2023-08-21T14:25:32;2.28;;;1.10;;
40745;SDS011;26454;51.164;4.488;2023-08-21T14:27:58;3.00;;;1.00;;
40745;SDS011;26454;51.164;4.488;2023-08-21T14:30:25;3.17;;;1.25;;
40745;SDS011;26454;51.164;4.488;2023-08-21T14:32:51;3.65;;;1.58;;
40745;SDS011;26454;51.164;4.488;2023-08-21T14:35:17;1.42;;;0.75;;
40745;SDS011;26454;51.164;4.488;2023-08-21T14:37:43;4.72;;;1.00;;
40745;SDS011;26454;51.164;4.488;2023-08-21T14:40:09;7.50;;;1.38;;
40745;SDS011;26454;51.164;4.488;2023-08-21T14:42:36;3.88;;;1.00;;
40745;SDS011;26454;51.164;4.488;2023-08-21T14:45:02;1.48;;;0.93;;
40745;SDS011;26454;51.164;4.488;2023-08-21T14:47:28;3.88;;;1.23;;
40745;SDS011;26454;51.164;4.488;2023-08-21T14:49:55;2.17;;;1.27;;
40745;SDS011;26454;51.164;4.488;2023-08-21T14:52:21;6.25;;;1.45;;
40745;SDS011;26454;51.164;4.488;2023-08-21T14:54:48;3.90;;;1.10;;